Time;durP1;ratioP1;P1;durP2;ratioP2;P2;SDS_P1;SDS_P2;PMS_P1;PMS_P2;Temp;Humidity;BMP_temperature;BMP_pressure;BME280_temperature;BME280_humidity;BME280_pressure;Samples;Min_cycle;Max_cycle;Signal;HPM_P1;HPM_P2
2021/11/06 00:02:22;;;;;;;9.27;8.27;;;11.40;99.90;;;;;;5135579;27;20226;-64
2021/11/06 00:04:51;;;;;;;14.27;10.27;;;11.40;99.90;;;;;;5135514;27;20258;-64
2021/11/06 00:07:18;;;;;;;20.52;14.35;;;11.40;99.90;;;;;;5134932;27;20609;-64
2021/11/06 00:09:46;;;;;;;13.77;9.82;;;11.40;99.90;;;;;;5135623;27;20684;-64
2021/11/06 00:12:14;;;;;;;10.13;8.55;;;11.40;99.90;;;;;;5127880;27;20223;-64
2021/11/06 00:14:42;;;;;;;15.73;12.88;;;11.40;99.90;;;;;;5130156;27;20232;-64
2021/11/06 00:17:09;;;;;;;29.23;23.85;;;11.40;99.90;;;;;;5134616;27;20603;-64
2021/11/06 00:19:36;;;;;;;43.53;29.25;;;11.40;99.90;;;;;;5135545;27;20601;-64
2021/11/06 00:22:05;;;;;;;29.85;23.50;;;11.40;99.90;;;;;;5135252;27;20237;-64
2021/11/06 00:24:32;;;;;;;8.93;8.02;;;11.40;99.90;;;;;;5135231;27;20234;-64
2021/11/06 00:26:59;;;;;;;16.58;13.07;;;11.40;99.90;;;;;;5135213;27;20226;-63
2021/11/06 00:29:26;;;;;;;24.00;16.80;;;11.30;99.90;;;;;;5131175;27;20221;-63
2021/11/06 00:31:53;;;;;;;18.50;12.70;;;11.30;99.90;;;;;;5134281;27;20245;-63
2021/11/06 00:34:20;;;;;;;21.10;18.20;;;11.30;99.90;;;;;;5134961;27;20537;-63
2021/11/06 00:36:46;;;;;;;20.35;16.75;;;11.30;99.90;;;;;;5134432;27;20572;-63
2021/11/06 00:39:15;;;;;;;12.60;10.93;;;11.30;99.90;;;;;;5124424;27;20234;-63
2021/11/06 00:41:42;;;;;;;9.95;8.32;;;11.30;99.90;;;;;;5129597;27;20679;-63
2021/11/06 00:44:09;;;;;;;13.07;10.98;;;11.40;99.90;;;;;;5134488;27;20225;-64
2021/11/06 00:46:36;;;;;;;13.90;11.68;;;11.30;99.90;;;;;;5135303;27;20233;-64
2021/11/06 00:49:03;;;;;;;15.10;10.15;;;11.40;99.90;;;;;;5129781;27;20535;-64
2021/11/06 00:51:30;;;;;;;10.02;9.02;;;11.40;99.90;;;;;;5135064;27;20849;-64
2021/11/06 00:53:57;;;;;;;14.55;9.43;;;11.40;99.90;;;;;;5134349;27;20222;-64
2021/11/06 00:56:25;;;;;;;12.10;9.93;;;11.40;99.90;;;;;;5129010;27;20238;-65
2021/11/06 00:58:52;;;;;;;8.95;8.13;;;11.40;99.90;;;;;;5128931;27;20708;-62
2021/11/06 01:01:22;;;;;;;10.60;8.60;;;11.40;99.90;;;;;;5133677;27;20226;-63
2021/11/06 01:03:49;;;;;;;11.38;7.90;;;11.40;99.90;;;;;;5134487;27;20229;-62
2021/11/06 01:06:16;;;;;;;9.68;8.73;;;11.40;99.90;;;;;;5131369;27;20237;-63
2021/11/06 01:08:44;;;;;;;11.85;7.88;;;11.40;99.90;;;;;;5129828;27;20221;-63
2021/11/06 01:11:12;;;;;;;10.07;7.43;;;11.40;99.90;;;;;;5133962;27;20214;-63
2021/11/06 01:13:40;;;;;;;21.92;15.30;;;11.40;99.90;;;;;;5134173;27;20215;-63
2021/11/06 01:16:07;;;;;;;9.73;8.65;;;11.40;99.90;;;;;;5134106;27;20221;-63
2021/11/06 01:18:34;;;;;;;10.35;8.27;;;11.30;99.90;;;;;;5137100;27;20221;-63
2021/11/06 01:21:01;;;;;;;16.33;10.95;;;11.30;99.90;;;;;;5126183;27;20583;-63
2021/11/06 01:23:28;;;;;;;14.18;9.13;;;11.40;99.90;;;;;;5126247;27;20214;-64
2021/11/06 01:25:55;;;;;;;9.45;8.32;;;11.40;99.90;;;;;;5133922;27;20222;-62
2021/11/06 01:28:22;;;;;;;13.68;8.75;;;11.50;99.90;;;;;;5134377;27;20214;-64
2021/11/06 01:30:51;;;;;;;16.80;9.85;;;11.50;99.90;;;;;;5133706;27;20225;-64
2021/11/06 01:33:18;;;;;;;12.50;9.98;;;11.50;99.90;;;;;;5133966;27;20663;-64
2021/11/06 01:35:47;;;;;;;13.93;9.75;;;11.50;99.90;;;;;;5134227;27;20222;-64
2021/11/06 01:38:14;;;;;;;13.75;11.07;;;11.50;99.90;;;;;;5130866;27;20306;-64
2021/11/06 01:40:42;;;;;;;14.27;9.88;;;11.50;99.90;;;;;;5128631;27;20226;-64
2021/11/06 01:43:09;;;;;;;12.85;8.93;;;11.50;99.90;;;;;;5133480;27;20577;-64
2021/11/06 01:45:37;;;;;;;15.45;10.90;;;11.50;99.90;;;;;;5133679;27;20237;-64
2021/11/06 01:48:06;;;;;;;15.95;11.55;;;11.50;99.90;;;;;;5129011;27;20667;-63
2021/11/06 01:50:33;;;;;;;17.00;9.93;;;11.50;99.90;;;;;;5133985;27;20222;-63
2021/11/06 01:53:00;;;;;;;12.35;9.82;;;11.50;99.90;;;;;;5133225;27;20303;-63
2021/11/06 01:55:27;;;;;;;11.98;9.10;;;11.50;99.90;;;;;;5133705;27;20580;-63
2021/11/06 01:57:55;;;;;;;26.35;20.55;;;11.60;99.90;;;;;;5131290;27;20214;-63
2021/11/06 02:00:26;;;;;;;17.42;10.48;;;11.60;99.90;;;;;;5133215;27;20222;-64
2021/11/06 02:02:53;;;;;;;13.15;10.75;;;11.60;99.90;;;;;;5129830;27;20222;-63
2021/11/06 02:05:21;;;;;;;13.27;9.30;;;11.60;99.90;;;;;;5133193;27;20573;-63
2021/11/06 02:07:49;;;;;;;14.60;11.38;;;11.60;99.90;;;;;;5120024;27;20218;-63
2021/11/06 02:10:16;;;;;;;13.05;9.90;;;11.60;99.90;;;;;;5133011;27;20241;-63
2021/11/06 02:12:44;;;;;;;43.10;28.23;;;11.60;99.90;;;;;;5119452;27;20222;-63
2021/11/06 02:15:15;;;;;;;24.75;17.17;;;11.60;99.90;;;;;;5121862;27;20230;-63
2021/11/06 02:17:42;;;;;;;21.35;13.68;;;11.60;99.90;;;;;;5132781;27;20236;-63
2021/11/06 02:20:10;;;;;;;9.57;8.60;;;11.60;99.90;;;;;;5133097;27;20226;-63
2021/11/06 02:22:38;;;;;;;12.18;9.05;;;11.60;99.90;;;;;;5133392;27;20222;-63
2021/11/06 02:25:06;;;;;;;15.30;9.95;;;11.70;99.90;;;;;;5132578;27;20226;-64
2021/11/06 02:27:33;;;;;;;15.80;12.07;;;11.70;99.90;;;;;;5132069;27;20229;-63
2021/11/06 02:30:00;;;;;;;17.45;10.38;;;11.80;99.90;;;;;;5132830;27;20233;-63
2021/11/06 02:32:27;;;;;;;14.55;10.45;;;11.90;99.90;;;;;;5133230;27;20252;-63
2021/11/06 02:34:54;;;;;;;18.48;12.20;;;11.90;99.90;;;;;;5133355;27;20446;-64
2021/11/06 02:37:21;;;;;;;18.02;13.45;;;11.90;99.90;;;;;;5130791;27;20225;-63
2021/11/06 02:39:49;;;;;;;13.75;8.90;;;11.90;99.90;;;;;;5133197;27;20237;-63
2021/11/06 02:42:16;;;;;;;13.30;8.40;;;12.00;99.90;;;;;;5132689;27;20218;-64
2021/11/06 02:44:43;;;;;;;16.50;11.80;;;12.00;99.90;;;;;;5133123;27;20237;-63
2021/11/06 02:47:10;;;;;;;10.85;7.90;;;12.00;99.90;;;;;;5132281;27;20222;-63
2021/11/06 02:49:40;;;;;;;14.45;10.48;;;12.00;99.90;;;;;;5128388;27;20226;-63
2021/11/06 02:52:12;;;;;;;16.52;9.70;;;12.10;99.90;;;;;;5119000;27;20222;-63
2021/11/06 02:54:42;;;;;;;18.27;14.00;;;12.10;99.90;;;;;;5133104;27;20225;-63
2021/11/06 02:57:11;;;;;;;11.85;8.35;;;12.10;99.90;;;;;;5130128;27;20221;-63
2021/11/06 02:59:38;;;;;;;14.57;10.43;;;12.10;99.90;;;;;;5134460;27;20305;-63
2021/11/06 03:02:06;;;;;;;14.50;9.10;;;12.20;99.90;;;;;;5136272;27;20214;-63
2021/11/06 03:04:37;;;;;;;14.02;8.27;;;12.20;99.90;;;;;;5136910;27;20218;-63
2021/11/06 03:07:04;;;;;;;13.45;8.73;;;12.20;99.90;;;;;;5128958;27;20250;-63
2021/11/06 03:09:31;;;;;;;11.55;9.05;;;12.20;99.90;;;;;;5132492;27;20222;-63
2021/11/06 03:11:59;;;;;;;12.93;9.27;;;12.20;99.90;;;;;;5137284;27;20579;-63
2021/11/06 03:14:28;;;;;;;15.68;10.50;;;12.20;99.90;;;;;;5129690;27;20217;-64
2021/11/06 03:16:55;;;;;;;14.05;12.55;;;12.30;99.90;;;;;;5136326;27;20229;-63
2021/11/06 03:19:21;;;;;;;12.90;9.00;;;12.30;99.90;;;;;;5135351;27;20856;-63
2021/11/06 03:21:48;;;;;;;17.42;11.57;;;12.30;99.90;;;;;;5136945;27;20222;-63
2021/11/06 03:24:15;;;;;;;12.55;10.02;;;12.20;99.90;;;;;;5136151;27;20222;-63
2021/11/06 03:26:42;;;;;;;17.85;11.00;;;12.20;99.90;;;;;;5127861;27;20217;-64
2021/11/06 03:29:09;;;;;;;14.98;9.90;;;12.20;99.90;;;;;;5136133;27;20218;-64
2021/11/06 03:31:38;;;;;;;16.67;10.65;;;12.20;99.90;;;;;;5136207;27;20226;-63
2021/11/06 03:34:04;;;;;;;14.32;9.68;;;12.20;99.90;;;;;;5136343;27;20218;-64
2021/11/06 03:36:31;;;;;;;14.10;9.68;;;12.20;99.90;;;;;;5135978;27;20214;-63
2021/11/06 03:38:58;;;;;;;15.13;10.50;;;12.20;99.90;;;;;;5132576;27;20230;-63
2021/11/06 03:41:26;;;;;;;13.55;9.23;;;12.20;99.90;;;;;;5139147;27;20229;-64
2021/11/06 03:43:53;;;;;;;16.70;9.05;;;12.20;99.90;;;;;;5134522;27;20249;-63
2021/11/06 03:46:20;;;;;;;11.93;9.15;;;12.20;99.90;;;;;;5135784;27;20225;-64
2021/11/06 03:48:48;;;;;;;9.50;7.88;;;12.20;99.90;;;;;;5130998;27;20214;-64
2021/11/06 03:51:15;;;;;;;14.80;9.45;;;12.30;99.90;;;;;;5135726;27;20223;-64
2021/11/06 03:53:42;;;;;;;14.50;9.45;;;12.30;99.90;;;;;;5130582;27;20267;-63
2021/11/06 03:56:09;;;;;;;13.23;8.65;;;12.20;99.90;;;;;;5135480;27;20234;-63
2021/11/06 03:58:36;;;;;;;11.07;9.38;;;12.30;99.90;;;;;;5135886;27;20222;-63
2021/11/06 04:01:04;;;;;;;10.18;8.88;;;12.20;99.90;;;;;;5135996;27;20226;-63
2021/11/06 04:03:31;;;;;;;10.90;8.57;;;12.20;99.90;;;;;;5135635;27;20951;-63
2021/11/06 04:05:59;;;;;;;15.63;11.35;;;12.20;99.90;;;;;;5135566;27;20814;-63
2021/11/06 04:08:26;;;;;;;15.02;10.65;;;12.20;99.90;;;;;;5121711;27;20451;-64
2021/11/06 04:10:53;;;;;;;13.77;8.85;;;12.20;99.90;;;;;;5134351;27;20230;-63
2021/11/06 04:13:20;;;;;;;12.45;8.55;;;12.20;99.90;;;;;;5135240;27;20612;-63
2021/11/06 04:15:57;;;;;;;9.60;7.43;;;12.20;99.90;;;;;;5135782;27;20240;-63
2021/11/06 04:18:23;;;;;;;11.60;8.02;;;12.20;99.90;;;;;;5135077;27;20558;-63
2021/11/06 04:20:51;;;;;;;13.52;9.90;;;12.20;99.90;;;;;;5135580;27;20214;-64
2021/11/06 04:23:19;;;;;;;12.68;9.02;;;12.20;99.90;;;;;;5135101;27;20225;-64
2021/11/06 04:25:47;;;;;;;17.35;12.57;;;12.20;99.90;;;;;;5135389;27;20222;-63
2021/11/06 04:28:15;;;;;;;18.10;11.13;;;12.20;99.90;;;;;;5134978;27;20226;-63
2021/11/06 04:30:42;;;;;;;11.80;8.30;;;12.20;99.90;;;;;;5135565;27;20691;-64
2021/11/06 04:33:09;;;;;;;12.40;8.90;;;12.20;99.90;;;;;;5135050;27;20229;-63
2021/11/06 04:35:36;;;;;;;13.43;8.05;;;12.20;99.90;;;;;;5135183;27;20680;-64
2021/11/06 04:38:03;;;;;;;10.80;8.40;;;12.20;99.90;;;;;;5134771;27;20233;-63
2021/11/06 04:40:31;;;;;;;11.35;8.80;;;12.20;99.90;;;;;;5134847;27;20218;-63
2021/11/06 04:42:58;;;;;;;38.17;21.33;;;12.30;99.90;;;;;;5135389;27;20541;-63
2021/11/06 04:45:25;;;;;;;23.63;15.65;;;12.20;99.90;;;;;;5134943;27;20226;-64
2021/11/06 04:47:52;;;;;;;14.07;11.10;;;12.20;99.90;;;;;;5131859;27;20218;-63
2021/11/06 04:50:20;;;;;;;12.68;9.98;;;12.20;99.90;;;;;;5123690;27;20222;-63
2021/11/06 04:52:47;;;;;;;10.48;7.45;;;12.30;99.90;;;;;;5135351;27;20229;-64
2021/11/06 04:55:16;;;;;;;7.95;5.90;;;12.30;99.90;;;;;;5134107;27;20222;-63
2021/11/06 04:57:45;;;;;;;12.93;6.80;;;12.20;99.90;;;;;;5129819;27;20222;-63
2021/11/06 05:00:14;;;;;;;10.18;6.50;;;12.30;99.90;;;;;;5134638;27;20226;-64
2021/11/06 05:02:41;;;;;;;8.13;6.28;;;12.30;99.90;;;;;;5134781;27;20667;-63
2021/11/06 05:05:09;;;;;;;26.02;17.85;;;12.30;99.90;;;;;;5134780;27;20218;-64
2021/11/06 05:07:36;;;;;;;15.80;9.48;;;12.30;99.90;;;;;;5133961;27;20225;-64
2021/11/06 05:10:05;;;;;;;20.35;16.05;;;12.30;99.90;;;;;;5134501;27;20221;-63
2021/11/06 05:12:32;;;;;;;11.23;7.85;;;12.30;99.90;;;;;;5134363;27;20230;-63
2021/11/06 05:15:00;;;;;;;29.15;21.58;;;12.30;99.90;;;;;;5122739;27;20214;-64
2021/11/06 05:17:27;;;;;;;11.05;5.32;;;12.30;99.90;;;;;;5134084;27;20234;-64
2021/11/06 05:19:54;;;;;;;19.10;14.05;;;12.30;99.90;;;;;;5134309;27;20237;-63
2021/11/06 05:22:21;;;;;;;10.10;7.40;;;12.30;99.90;;;;;;5133375;27;20225;-63
2021/11/06 05:24:48;;;;;;;10.90;5.40;;;12.30;99.90;;;;;;5134435;27;20222;-63
2021/11/06 05:27:15;;;;;;;6.88;5.20;;;12.40;99.90;;;;;;5133964;27;20230;-63
2021/11/06 05:29:42;;;;;;;9.52;5.30;;;12.40;99.90;;;;;;5134571;27;20609;-63
2021/11/06 05:32:10;;;;;;;15.13;6.28;;;12.40;99.90;;;;;;5134301;27;20676;-63
2021/11/06 05:34:37;;;;;;;7.20;5.65;;;12.40;99.90;;;;;;5134126;27;20610;-64
2021/11/06 05:37:05;;;;;;;14.52;9.25;;;12.30;99.90;;;;;;5133905;27;20222;-63
2021/11/06 05:39:32;;;;;;;21.55;18.30;;;12.30;99.90;;;;;;5133101;27;20221;-63
2021/11/06 05:41:59;;;;;;;18.23;15.00;;;12.30;99.90;;;;;;5134313;27;20222;-64
2021/11/06 05:44:25;;;;;;;10.82;7.43;;;12.30;99.90;;;;;;5133456;27;20233;-64
2021/11/06 05:46:52;;;;;;;15.07;7.07;;;12.30;99.90;;;;;;5133469;27;20679;-63
2021/11/06 05:49:21;;;;;;;9.30;6.50;;;12.30;99.90;;;;;;5122239;27;20222;-64
2021/11/06 05:51:47;;;;;;;11.25;6.70;;;12.30;99.90;;;;;;5130571;27;20214;-63
2021/11/06 05:54:15;;;;;;;10.10;8.15;;;12.30;99.90;;;;;;5133405;27;20256;-63
2021/11/06 05:56:42;;;;;;;11.15;6.63;;;12.30;99.90;;;;;;5124996;27;20246;-63
2021/11/06 05:59:09;;;;;;;14.30;8.32;;;12.30;99.90;;;;;;5133754;27;20228;-63
2021/11/06 06:01:37;;;;;;;7.93;5.53;;;12.30;99.90;;;;;;5133002;27;20233;-63
2021/11/06 06:04:05;;;;;;;20.65;13.18;;;12.20;99.90;;;;;;5133902;27;20229;-63
2021/11/06 06:06:33;;;;;;;10.43;6.30;;;12.20;99.90;;;;;;5133265;27;20224;-63
2021/11/06 06:09:01;;;;;;;10.35;5.88;;;12.20;99.90;;;;;;5133549;27;20305;-63
2021/11/06 06:11:28;;;;;;;7.03;5.43;;;12.20;99.90;;;;;;5132831;27;20233;-63
2021/11/06 06:13:55;;;;;;;9.98;6.88;;;12.20;99.90;;;;;;5123973;27;20233;-63
2021/11/06 06:16:22;;;;;;;9.73;6.40;;;12.30;99.90;;;;;;5131726;27;20695;-63
2021/11/06 06:18:49;;;;;;;19.92;10.77;;;12.30;99.90;;;;;;5133614;27;20226;-63
2021/11/06 06:21:16;;;;;;;14.95;7.93;;;12.30;99.90;;;;;;5133104;27;20569;-64
2021/11/06 06:23:44;;;;;;;8.43;6.07;;;12.20;99.90;;;;;;5132790;27;20245;-63
2021/11/06 06:26:12;;;;;;;22.60;13.43;;;12.20;99.90;;;;;;5133186;27;20256;-63
2021/11/06 06:28:39;;;;;;;7.80;5.10;;;12.30;99.90;;;;;;5133179;27;20524;-64
2021/11/06 06:31:07;;;;;;;26.63;19.23;;;12.30;99.90;;;;;;5132824;27;20217;-63
2021/11/06 06:33:34;;;;;;;23.83;17.13;;;12.30;99.90;;;;;;5124740;27;20230;-64
2021/11/06 06:36:01;;;;;;;11.10;6.75;;;12.30;99.90;;;;;;5132517;27;20664;-63
2021/11/06 06:38:28;;;;;;;12.60;8.00;;;12.40;99.90;;;;;;5132762;27;20245;-64
2021/11/06 06:40:56;;;;;;;13.05;7.25;;;12.40;99.90;;;;;;5134650;27;20229;-63
2021/11/06 06:43:23;;;;;;;10.85;8.23;;;12.40;99.90;;;;;;5132619;27;20228;-64
2021/11/06 06:45:50;;;;;;;9.38;7.22;;;12.40;99.90;;;;;;5133238;27;20229;-64
2021/11/06 06:48:17;;;;;;;6.53;5.63;;;12.50;99.90;;;;;;5128336;27;20219;-64
2021/11/06 06:50:46;;;;;;;17.33;14.40;;;12.50;99.90;;;;;;5124105;27;20230;-64
2021/11/06 06:53:13;;;;;;;11.32;8.98;;;12.50;99.90;;;;;;5133014;27;20317;-63
2021/11/06 06:55:40;;;;;;;7.78;6.57;;;12.60;99.90;;;;;;5132302;27;20236;-63
2021/11/06 06:58:09;;;;;;;8.70;5.30;;;12.60;99.90;;;;;;5128343;27;20240;-63
2021/11/06 07:00:36;;;;;;;10.40;6.90;;;12.60;99.90;;;;;;5132807;27;20230;-63
2021/11/06 07:03:04;;;;;;;17.80;13.68;;;12.60;99.90;;;;;;5133243;27;20290;-63
2021/11/06 07:05:31;;;;;;;13.43;7.47;;;12.60;99.90;;;;;;5132605;27;20603;-64
2021/11/06 07:07:58;;;;;;;10.65;7.07;;;12.60;99.90;;;;;;5132904;27;20267;-63
2021/11/06 07:10:26;;;;;;;12.02;9.45;;;12.70;99.90;;;;;;5132106;27;20718;-63
2021/11/06 07:12:53;;;;;;;16.13;7.60;;;12.70;99.90;;;;;;5132740;27;20602;-63
2021/11/06 07:15:22;;;;;;;9.68;6.07;;;12.70;99.90;;;;;;5125908;27;20606;-63
2021/11/06 07:17:49;;;;;;;43.45;25.15;;;12.80;99.90;;;;;;5128951;27;20221;-63
2021/11/06 07:20:19;;;;;;;11.40;9.13;;;12.70;99.90;;;;;;5132203;27;20237;-63
2021/11/06 07:22:47;;;;;;;9.02;6.22;;;12.70;99.90;;;;;;5132613;27;20555;-63
2021/11/06 07:25:15;;;;;;;19.80;12.68;;;12.80;99.90;;;;;;5132745;27;20234;-64
2021/11/06 07:27:41;;;;;;;11.45;7.30;;;12.80;99.90;;;;;;5132175;27;20233;-63
2021/11/06 07:30:10;;;;;;;13.60;11.02;;;12.80;99.90;;;;;;5132054;27;20229;-63
2021/11/06 07:32:38;;;;;;;12.68;7.72;;;12.80;99.90;;;;;;5132227;27;20225;-63
2021/11/06 07:35:06;;;;;;;15.43;9.85;;;12.90;99.90;;;;;;5127469;27;20229;-63
2021/11/06 07:37:34;;;;;;;11.80;8.65;;;13.00;99.90;;;;;;5132504;27;20226;-64
2021/11/06 07:40:03;;;;;;;7.63;6.88;;;12.90;99.90;;;;;;5126261;27;20222;-63
2021/11/06 07:42:33;;;;;;;18.33;13.57;;;13.00;99.90;;;;;;5132410;27;20734;-63
2021/11/06 07:44:59;;;;;;;17.38;12.68;;;13.00;99.90;;;;;;5132707;27;20229;-63
2021/11/06 07:47:26;;;;;;;11.23;7.03;;;13.00;99.90;;;;;;5136079;27;20255;-63
2021/11/06 07:49:55;;;;;;;12.63;7.88;;;13.00;99.90;;;;;;5124401;27;20231;-63
2021/11/06 07:52:22;;;;;;;14.63;12.30;;;13.00;99.90;;;;;;5136562;27;20233;-63
2021/11/06 07:54:48;;;;;;;10.80;7.63;;;13.00;99.90;;;;;;5135579;27;20222;-64
2021/11/06 07:57:15;;;;;;;8.73;6.70;;;13.00;99.90;;;;;;5131522;27;20237;-63
2021/11/06 07:59:42;;;;;;;12.68;8.50;;;13.10;99.90;;;;;;5135795;27;20245;-64
2021/11/06 08:02:09;;;;;;;10.05;7.97;;;13.00;99.90;;;;;;5136313;27;20222;-63
2021/11/06 08:04:36;;;;;;;11.43;7.50;;;13.10;99.90;;;;;;5135664;27;20233;-63
2021/11/06 08:07:05;;;;;;;25.42;17.33;;;13.10;99.90;;;;;;5136372;27;20249;-63
2021/11/06 08:09:32;;;;;;;12.10;10.45;;;13.00;99.90;;;;;;5135433;27;20593;-64
2021/11/06 08:11:59;;;;;;;12.23;8.45;;;13.00;99.90;;;;;;5135870;27;20222;-64
2021/11/06 08:14:26;;;;;;;7.97;7.20;;;13.00;99.90;;;;;;5124437;27;20241;-63
2021/11/06 08:16:56;;;;;;;13.80;12.30;;;13.00;99.90;;;;;;5135380;27;21013;-64
2021/11/06 08:19:23;;;;;;;11.02;7.35;;;13.10;99.90;;;;;;5135595;27;20230;-63
2021/11/06 08:21:51;;;;;;;43.17;28.98;;;13.10;99.90;;;;;;5133980;27;20305;-63
2021/11/06 08:24:21;;;;;;;10.75;7.30;;;13.10;99.90;;;;;;5135340;27;20222;-63
2021/11/06 08:26:48;;;;;;;23.60;17.27;;;13.10;99.90;;;;;;5135613;27;20218;-64
2021/11/06 08:29:15;;;;;;;27.73;23.02;;;13.10;99.90;;;;;;5135643;27;20248;-63
2021/11/06 08:31:43;;;;;;;11.05;8.30;;;13.10;99.90;;;;;;5135459;27;20253;-63
2021/11/06 08:34:10;;;;;;;10.00;8.38;;;13.10;99.90;;;;;;5134864;27;20256;-63
2021/11/06 08:36:38;;;;;;;34.58;24.10;;;13.10;99.90;;;;;;5135247;27;20229;-64
2021/11/06 08:39:05;;;;;;;10.82;9.20;;;13.10;99.90;;;;;;5135408;27;20236;-65
2021/11/06 08:41:34;;;;;;;9.52;7.60;;;13.10;99.90;;;;;;5135338;27;20226;-65
2021/11/06 08:44:01;;;;;;;13.20;8.85;;;13.10;99.90;;;;;;5135351;27;20603;-64
2021/11/06 08:46:28;;;;;;;10.95;9.35;;;13.20;99.90;;;;;;5135474;27;20226;-64
2021/11/06 08:48:55;;;;;;;11.23;10.02;;;13.30;99.90;;;;;;5121113;27;20222;-64
2021/11/06 08:51:22;;;;;;;23.50;17.52;;;13.30;99.90;;;;;;5133464;27;20644;-64
2021/11/06 08:53:49;;;;;;;13.27;8.00;;;13.30;99.90;;;;;;5134942;27;20684;-64
2021/11/06 08:56:16;;;;;;;13.23;9.80;;;13.30;99.90;;;;;;5130738;27;20581;-64
2021/11/06 08:58:44;;;;;;;11.45;8.63;;;13.40;99.90;;;;;;5132912;27;20233;-64
2021/11/06 09:01:12;;;;;;;15.00;9.40;;;13.30;99.90;;;;;;5135212;27;20233;-63
2021/11/06 09:03:39;;;;;;;16.30;11.48;;;13.30;99.90;;;;;;5134807;27;20303;-64
2021/11/06 09:06:06;;;;;;;9.20;8.20;;;13.40;99.90;;;;;;5134852;27;20244;-64
2021/11/06 09:08:36;;;;;;;14.82;11.95;;;13.40;99.90;;;;;;5134560;27;20553;-64
2021/11/06 09:11:06;;;;;;;11.05;9.27;;;13.40;99.90;;;;;;5134494;27;20297;-64
2021/11/06 09:13:33;;;;;;;11.40;7.43;;;13.60;99.90;;;;;;5134204;27;20222;-64
2021/11/06 09:16:03;;;;;;;20.92;16.67;;;13.60;99.90;;;;;;5134670;27;20232;-64
2021/11/06 09:18:30;;;;;;;18.17;13.60;;;13.60;99.90;;;;;;5134886;27;20541;-64
2021/11/06 09:20:57;;;;;;;10.55;8.77;;;13.60;99.90;;;;;;5133051;27;20497;-64
2021/11/06 09:23:24;;;;;;;14.80;11.50;;;13.60;99.90;;;;;;5133967;27;20222;-64
2021/11/06 09:25:51;;;;;;;14.10;11.90;;;13.60;99.90;;;;;;5133453;27;20467;-64
2021/11/06 09:28:18;;;;;;;9.30;7.85;;;13.60;99.90;;;;;;5133944;27;20229;-64
2021/11/06 09:30:45;;;;;;;23.08;18.52;;;13.70;99.90;;;;;;5133316;27;20238;-64
2021/11/06 09:33:13;;;;;;;15.02;10.55;;;13.70;99.90;;;;;;5133992;27;20222;-64
2021/11/06 09:35:41;;;;;;;13.75;12.25;;;13.70;99.90;;;;;;5133555;27;20222;-64
2021/11/06 09:38:09;;;;;;;10.68;8.50;;;13.60;99.90;;;;;;5134550;27;20589;-64
2021/11/06 09:40:36;;;;;;;13.85;11.98;;;13.70;99.90;;;;;;5134363;27;20230;-64
2021/11/06 09:43:04;;;;;;;36.90;30.00;;;13.70;99.90;;;;;;5134533;27;20237;-64
2021/11/06 09:45:31;;;;;;;17.75;15.85;;;13.70;99.90;;;;;;5134574;27;20222;-64
2021/11/06 09:47:58;;;;;;;12.65;8.48;;;13.70;99.90;;;;;;5134084;27;20229;-64
2021/11/06 09:50:26;;;;;;;12.85;9.55;;;13.70;99.90;;;;;;5134253;27;20681;-65
2021/11/06 09:52:56;;;;;;;15.43;13.77;;;13.70;99.90;;;;;;5133906;27;20240;-65
2021/11/06 09:55:24;;;;;;;11.70;9.55;;;13.80;99.90;;;;;;5134055;27;20214;-64
2021/11/06 09:57:52;;;;;;;11.73;8.33;;;13.80;99.90;;;;;;5133871;27;20230;-64
2021/11/06 10:00:20;;;;;;;13.13;9.95;;;13.80;99.90;;;;;;5134363;27;20802;-63
2021/11/06 10:02:54;;;;;;;20.07;15.97;;;13.80;99.90;;;;;;5133781;27;20225;-63
2021/11/06 10:05:46;;;;;;;8.18;6.60;;;13.90;99.90;;;;;;5133910;27;20468;-63
2021/11/06 10:08:20;;;;;;;12.23;8.13;;;13.90;99.90;;;;;;5134343;27;20222;-64
2021/11/06 10:10:48;;;;;;;11.50;6.40;;;14.00;99.90;;;;;;5133595;27;21230;-64
2021/11/06 10:13:16;;;;;;;8.90;8.10;;;14.00;99.90;;;;;;5134311;27;20463;-64
2021/11/06 10:15:46;;;;;;;10.93;8.23;;;14.00;99.90;;;;;;5133727;27;20439;-64
2021/11/06 10:18:15;;;;;;;12.10;9.80;;;14.00;99.90;;;;;;5133733;27;20226;-64
2021/11/06 10:20:46;;;;;;;8.68;7.70;;;14.00;99.90;;;;;;5133389;27;20528;-64
2021/11/06 10:23:14;;;;;;;8.75;7.65;;;14.00;99.90;;;;;;5133940;27;20296;-64
2021/11/06 10:25:41;;;;;;;10.73;9.70;;;14.00;99.90;;;;;;5133410;27;20229;-64
2021/11/06 10:28:12;;;;;;;9.50;5.80;;;14.10;99.90;;;;;;5133716;27;20468;-64
2021/11/06 10:30:41;;;;;;;5.60;5.10;;;14.10;99.90;;;;;;5133535;27;20226;-64
2021/11/06 10:33:12;;;;;;;8.13;6.83;;;14.20;99.90;;;;;;5133728;27;20455;-64
2021/11/06 10:35:41;;;;;;;7.27;6.57;;;14.10;99.90;;;;;;5133372;27;20468;-62
2021/11/06 10:38:13;;;;;;;7.35;6.60;;;14.10;99.90;;;;;;5133648;27;20467;-62
2021/11/06 10:40:43;;;;;;;15.33;12.97;;;14.20;99.90;;;;;;5133126;27;20567;-62
2021/11/06 10:43:13;;;;;;;10.50;7.22;;;14.10;99.90;;;;;;5133536;27;20471;-62
2021/11/06 10:45:44;;;;;;;16.20;11.20;;;14.20;99.90;;;;;;5133343;27;20222;-62
2021/11/06 10:48:13;;;;;;;9.70;8.70;;;14.30;99.90;;;;;;5133627;27;20471;-62
2021/11/06 10:51:02;;;;;;;6.93;6.22;;;14.30;99.90;;;;;;5123416;27;20679;-62
2021/11/06 10:53:52;;;;;;;10.67;9.50;;;14.40;99.90;;;;;;5112494;27;20569;-63
2021/11/06 10:56:34;;;;;;;8.07;7.20;;;14.40;99.90;;;;;;5108611;27;20469;-63
2021/11/06 10:59:04;;;;;;;9.67;8.67;;;14.50;99.90;;;;;;5113302;27;20448;-62
2021/11/06 11:01:34;;;;;;;9.50;8.50;;;14.60;99.90;;;;;;5112651;27;20456;-63
2021/11/06 11:04:04;;;;;;;7.07;6.10;;;14.60;99.90;;;;;;5112964;27;20233;-62
2021/11/06 11:06:37;;;;;;;10.53;9.43;;;14.60;99.90;;;;;;5112285;27;20457;-63
2021/11/06 11:09:10;;;;;;;9.63;6.17;;;14.60;99.90;;;;;;5112666;27;20548;-62
2021/11/06 11:11:37;;;;;;;6.90;6.13;;;14.70;99.90;;;;;;5119571;27;20893;-63
2021/11/06 11:14:06;;;;;;;6.63;5.77;;;14.70;99.90;;;;;;5133385;27;20470;-63
2021/11/06 11:16:36;;;;;;;13.97;9.00;;;14.70;99.90;;;;;;5132873;27;20937;-63
2021/11/06 11:19:08;;;;;;;9.73;6.30;;;14.70;99.90;;;;;;5133103;27;20534;-63
2021/11/06 11:21:40;;;;;;;4.77;4.37;;;14.70;99.90;;;;;;5135916;27;20455;-63
2021/11/06 11:24:11;;;;;;;6.87;6.07;;;14.60;99.90;;;;;;5136966;27;20490;-64
2021/11/06 11:26:40;;;;;;;5.77;5.03;;;14.60;99.90;;;;;;5136799;27;20955;-63
2021/11/06 11:29:10;;;;;;;6.97;6.17;;;14.60;99.90;;;;;;5137132;27;20467;-63
2021/11/06 11:31:38;;;;;;;10.23;9.00;;;14.50;99.90;;;;;;5136663;27;20458;-64
2021/11/06 11:34:08;;;;;;;7.83;5.90;;;14.50;99.90;;;;;;5137049;27;20487;-63
2021/11/06 11:36:37;;;;;;;7.00;5.50;;;14.40;99.90;;;;;;5136641;27;20508;-63
2021/11/06 11:39:05;;;;;;;5.70;4.03;;;14.40;99.90;;;;;;5136795;27;20954;-63
2021/11/06 11:41:58;;;;;;;10.10;6.80;;;14.40;99.90;;;;;;5136466;27;20804;-63
2021/11/06 11:44:51;;;;;;;6.00;5.40;;;14.40;99.90;;;;;;5136438;27;21093;-63
2021/11/06 11:47:22;;;;;;;8.50;5.47;;;14.40;99.90;;;;;;5136396;27;20463;-64
2021/11/06 11:49:54;;;;;;;7.57;5.50;;;14.40;99.90;;;;;;5136516;27;20471;-63
2021/11/06 11:52:31;;;;;;;6.70;6.20;;;14.50;99.90;;;;;;5136369;27;20999;-63
2021/11/06 11:55:02;;;;;;;7.70;5.60;;;14.40;99.80;;;;;;5136707;27;20463;-63
2021/11/06 11:57:32;;;;;;;5.60;5.20;;;14.40;99.90;;;;;;5135862;27;20466;-63
2021/11/06 12:00:00;;;;;;;5.73;4.40;;;14.40;99.90;;;;;;5136650;27;20463;-63
2021/11/06 12:02:28;;;;;;;7.20;6.57;;;14.40;99.90;;;;;;5136060;27;20460;-63
2021/11/06 12:05:30;;;;;;;15.37;8.63;;;14.40;99.90;;;;;;5136578;27;20460;-63
2021/11/06 12:08:32;;;;;;;8.70;7.80;;;14.40;99.90;;;;;;5136084;27;20510;-63
2021/11/06 12:11:21;;;;;;;8.53;7.23;;;14.40;99.90;;;;;;5135835;27;20469;-63
2021/11/06 12:13:51;;;;;;;8.07;7.23;;;14.50;99.90;;;;;;5136274;27;20493;-63
2021/11/06 12:16:20;;;;;;;13.07;9.37;;;14.50;99.90;;;;;;5136060;27;20489;-63
2021/11/06 12:18:50;;;;;;;7.80;7.00;;;14.60;99.90;;;;;;5136274;27;20805;-64
2021/11/06 12:21:31;;;;;;;8.93;7.33;;;14.60;99.90;;;;;;5135628;27;20471;-63
2021/11/06 12:24:00;;;;;;;4.80;4.17;;;14.60;99.90;;;;;;5135596;27;20459;-63
2021/11/06 12:26:30;;;;;;;5.60;5.10;;;14.70;99.90;;;;;;5136285;27;20456;-63
2021/11/06 12:29:24;;;;;;;6.63;5.57;;;14.70;99.90;;;;;;5135563;27;20460;-63
2021/11/06 12:31:55;;;;;;;5.33;4.77;;;14.80;99.90;;;;;;5134753;27;20480;-63
2021/11/06 12:34:41;;;;;;;4.50;4.10;;;14.80;99.90;;;;;;5135805;27;20495;-63
2021/11/06 12:37:09;;;;;;;8.60;6.23;;;14.80;99.90;;;;;;5135567;27;20463;-63
2021/11/06 12:39:53;;;;;;;8.73;4.90;;;14.80;99.90;;;;;;5135660;27;20957;-63
2021/11/06 12:42:22;;;;;;;6.67;5.50;;;14.80;99.90;;;;;;5136127;27;20533;-63
2021/11/06 12:44:55;;;;;;;8.27;6.00;;;14.80;99.90;;;;;;5135423;27;20528;-63